createdAt,value
2019-02-15T00:00:48.839Z,29.70
2019-02-15T00:03:18.101Z,20.47
2019-02-15T00:05:47.412Z,24.17
2019-02-15T00:08:16.887Z,27.53
2019-02-15T00:10:46.138Z,24.17
2019-02-15T00:13:15.624Z,16.47
2019-02-15T00:15:44.874Z,22.17
2019-02-15T00:18:33.034Z,17.80
2019-02-15T00:21:15.829Z,19.43
2019-02-15T00:23:44.961Z,18.83
2019-02-15T00:26:14.105Z,18.07
2019-02-15T00:28:43.222Z,21.87
2019-02-15T00:31:15.427Z,23.57
2019-02-15T00:33:44.546Z,25.03
2019-02-15T00:36:14.063Z,26.30
2019-02-15T00:38:43.782Z,22.87
2019-02-15T00:41:12.934Z,21.73
2019-02-15T00:43:42.318Z,21.57
2019-02-15T00:46:48.997Z,19.90
2019-02-15T00:49:46.027Z,22.57
2019-02-15T00:52:45.935Z,22.30
2019-02-15T00:55:34.446Z,22.50
2019-02-15T00:58:17.213Z,20.20
2019-02-15T01:00:57.919Z,18.67
2019-02-15T01:03:43.182Z,19.60
2019-02-15T01:06:34.241Z,20.63
2019-02-15T01:09:10.838Z,18.47
2019-02-15T01:11:45.349Z,19.77
2019-02-15T01:14:14.777Z,21.87
2019-02-15T01:16:43.969Z,18.10
2019-02-15T01:19:13.202Z,20.10
2019-02-15T01:21:42.583Z,24.73
2019-02-15T01:24:11.771Z,21.43
2019-02-15T01:26:45.951Z,18.53
2019-02-15T01:29:46.438Z,20.37
2019-02-15T01:32:32.990Z,19.43
2019-02-15T01:35:25.252Z,24.17
2019-02-15T01:38:05.539Z,21.43
2019-02-15T01:41:08.610Z,20.57
2019-02-15T01:43:44.670Z,20.23
2019-02-15T01:46:27.014Z,20.90
2019-02-15T01:48:56.170Z,19.03
2019-02-15T01:51:25.293Z,20.27
2019-02-15T01:53:54.487Z,24.93
2019-02-15T01:56:23.622Z,21.13
2019-02-15T01:58:52.773Z,20.83
2019-02-15T02:01:24.502Z,21.37
2019-02-15T02:03:53.916Z,20.67
2019-02-15T02:06:23.094Z,22.23
2019-02-15T02:08:52.247Z,20.93
2019-02-15T02:11:21.821Z,20.30
2019-02-15T02:13:51.117Z,23.43
2019-02-15T02:16:20.345Z,24.37
2019-02-15T02:18:49.529Z,17.47
2019-02-15T02:21:18.756Z,20.67
2019-02-15T02:23:47.936Z,20.70
2019-02-15T02:26:17.198Z,20.07
2019-02-15T02:28:46.436Z,20.27
2019-02-15T02:31:15.701Z,19.23
2019-02-15T02:33:45.133Z,21.13
2019-02-15T02:36:14.332Z,25.00
2019-02-15T02:38:43.513Z,20.07
2019-02-15T02:41:12.832Z,23.27
2019-02-15T02:43:42.022Z,17.63
2019-02-15T02:46:11.609Z,15.30
2019-02-15T02:48:41.165Z,17.40
2019-02-15T02:51:10.338Z,15.53
2019-02-15T02:53:39.631Z,15.07
2019-02-15T02:56:08.914Z,17.57
2019-02-15T02:58:38.158Z,17.00
2019-02-15T03:01:07.458Z,18.03
2019-02-15T03:03:36.735Z,16.20
2019-02-15T03:06:06.198Z,18.27
2019-02-15T03:08:35.513Z,17.50
2019-02-15T03:11:04.761Z,19.43
2019-02-15T03:13:34.207Z,20.33
2019-02-15T03:16:03.375Z,19.13
2019-02-15T03:18:32.565Z,18.43
2019-02-15T03:21:02.064Z,18.10
2019-02-15T03:23:31.323Z,17.80
2019-02-15T03:26:00.802Z,17.63
2019-02-15T03:28:30.483Z,16.47
2019-02-15T03:30:59.679Z,17.20
2019-02-15T03:33:28.924Z,18.17
2019-02-15T03:36:00.978Z,18.37
2019-02-15T03:38:41.250Z,17.67
2019-02-15T03:41:26.466Z,17.87
2019-02-15T03:43:56.215Z,16.33
2019-02-15T03:46:25.659Z,15.37
2019-02-15T03:48:54.916Z,19.00
2019-02-15T03:51:24.256Z,18.00
2019-02-15T03:53:53.497Z,19.67
2019-02-15T03:56:22.665Z,16.03
2019-02-15T03:58:51.849Z,16.50
2019-02-15T04:01:21.263Z,17.03
2019-02-15T04:03:50.516Z,18.47
2019-02-15T04:06:19.726Z,14.97
2019-02-15T04:08:48.907Z,19.53
2019-02-15T04:11:18.170Z,15.27
2019-02-15T04:13:47.329Z,13.20
2019-02-15T04:16:16.529Z,15.13
2019-02-15T04:18:45.785Z,17.43
2019-02-15T04:21:15.262Z,14.83
2019-02-15T04:23:44.737Z,15.73
2019-02-15T04:26:14.217Z,13.20
2019-02-15T04:28:43.408Z,15.00
2019-02-15T04:31:12.680Z,15.60
2019-02-15T04:33:41.851Z,15.20
2019-02-15T04:36:11.074Z,15.73
2019-02-15T04:38:40.553Z,15.33
2019-02-15T04:41:10.074Z,17.03
2019-02-15T04:43:39.241Z,14.73
2019-02-15T04:46:08.568Z,14.73
2019-02-15T04:48:37.839Z,16.80
2019-02-15T04:51:07.022Z,15.70
2019-02-15T04:53:36.387Z,16.13
2019-02-15T04:56:06.500Z,14.97
2019-02-15T04:58:36.081Z,13.07
2019-02-15T05:01:05.267Z,17.13
2019-02-15T05:03:34.568Z,15.27
2019-02-15T05:06:03.873Z,15.70
2019-02-15T05:08:33.348Z,15.33
2019-02-15T05:11:02.630Z,16.10
2019-02-15T05:13:31.913Z,14.63
2019-02-15T05:16:01.093Z,16.87
2019-02-15T05:18:30.326Z,15.17
2019-02-15T05:20:59.513Z,16.47
2019-02-15T05:23:28.710Z,14.33
2019-02-15T05:25:58.225Z,15.07
2019-02-15T05:28:27.425Z,13.87
2019-02-15T05:30:56.602Z,14.53
2019-02-15T05:33:25.903Z,14.73
2019-02-15T05:35:55.116Z,14.77
2019-02-15T05:38:24.670Z,15.80
2019-02-15T05:40:53.927Z,14.43
2019-02-15T05:43:23.157Z,18.83
2019-02-15T05:45:52.430Z,15.63
2019-02-15T05:48:21.710Z,14.57
2019-02-15T05:50:50.901Z,16.40
2019-02-15T05:53:20.091Z,15.83
2019-02-15T05:55:49.896Z,16.30
2019-02-15T05:58:19.079Z,15.37
2019-02-15T06:00:48.717Z,15.20
2019-02-15T06:03:18.234Z,17.23
2019-02-15T06:05:47.758Z,15.57
2019-02-15T06:08:17.026Z,21.00
2019-02-15T06:10:46.597Z,19.27
2019-02-15T06:13:17.226Z,19.27
2019-02-15T06:15:47.510Z,17.83
2019-02-15T06:18:17.546Z,15.20
2019-02-15T06:20:47.656Z,18.03
2019-02-15T06:23:17.554Z,18.10
2019-02-15T06:25:47.573Z,18.23
2019-02-15T06:28:17.353Z,20.13
2019-02-15T06:30:47.109Z,23.17
2019-02-15T06:33:17.289Z,19.50
2019-02-15T06:35:46.489Z,18.73
2019-02-15T06:38:16.369Z,21.20
2019-02-15T06:40:46.633Z,17.27
2019-02-15T06:43:16.948Z,17.77
2019-02-15T06:45:46.567Z,19.50
2019-02-15T06:48:16.875Z,20.90
2019-02-15T06:50:46.538Z,21.23
2019-02-15T06:53:15.805Z,26.70
2019-02-15T06:55:45.618Z,23.93
2019-02-15T06:58:15.027Z,19.10
2019-02-15T07:01:00.930Z,19.37
2019-02-15T07:03:36.763Z,16.43
2019-02-15T07:06:06.107Z,15.73
2019-02-15T07:08:36.005Z,19.10
2019-02-15T07:11:05.892Z,17.67
2019-02-15T07:13:35.217Z,18.50
2019-02-15T07:16:05.216Z,17.17
2019-02-15T07:18:35.110Z,17.53
2019-02-15T07:21:04.677Z,20.87
2019-02-15T07:23:33.960Z,16.93
2019-02-15T07:26:03.178Z,17.87
2019-02-15T07:28:32.381Z,23.03
2019-02-15T07:31:01.902Z,21.47
2019-02-15T07:33:31.181Z,23.60
2019-02-15T07:36:00.537Z,24.93
2019-02-15T07:38:29.936Z,20.97
2019-02-15T07:40:59.430Z,22.27
2019-02-15T07:43:28.826Z,17.83
2019-02-15T07:45:58.112Z,17.63
2019-02-15T07:48:27.901Z,20.57
2019-02-15T07:50:57.473Z,22.13
2019-02-15T07:53:27.167Z,17.53
2019-02-15T07:55:56.916Z,21.43
2019-02-15T07:58:26.452Z,16.70
2019-02-15T08:00:56.234Z,16.73
2019-02-15T08:03:25.533Z,17.23
2019-02-15T08:05:55.087Z,16.80
2019-02-15T08:08:24.373Z,18.77
2019-02-15T08:10:54.333Z,20.13
2019-02-15T08:13:23.649Z,18.27
2019-02-15T08:15:53.518Z,20.37
2019-02-15T08:18:23.188Z,19.00
2019-02-15T08:20:52.873Z,18.30
2019-02-15T08:23:22.433Z,19.70
2019-02-15T08:25:53.096Z,18.67
2019-02-15T08:28:22.442Z,22.20
2019-02-15T08:30:52.040Z,18.00
2019-02-15T08:33:21.408Z,15.23
2019-02-15T08:35:51.195Z,16.43
2019-02-15T08:38:20.867Z,15.50
2019-02-15T08:40:50.636Z,21.17
2019-02-15T08:43:19.972Z,15.73
2019-02-15T08:45:49.461Z,19.57
2019-02-15T08:48:19.170Z,19.23
2019-02-15T08:50:49.455Z,18.30
2019-02-15T08:53:18.779Z,19.43
2019-02-15T08:55:49.496Z,15.17
2019-02-15T08:58:19.290Z,17.80
2019-02-15T09:00:48.599Z,14.07
2019-02-15T09:03:17.866Z,16.57
2019-02-15T09:05:47.128Z,16.07
2019-02-15T09:08:17.328Z,15.87
2019-02-15T09:10:47.107Z,14.87
2019-02-15T09:13:17.419Z,17.03
2019-02-15T09:15:46.693Z,15.07
2019-02-15T09:18:16.036Z,14.37
2019-02-15T09:20:45.234Z,14.83
2019-02-15T09:23:14.704Z,14.77
2019-02-15T09:25:43.917Z,14.87
2019-02-15T09:28:31.469Z,16.57
2019-02-15T09:31:00.778Z,17.20
2019-02-15T09:33:30.159Z,16.83
2019-02-15T09:35:59.366Z,21.03
2019-02-15T09:38:29.026Z,16.80
2019-02-15T09:40:58.297Z,16.03
2019-02-15T09:43:27.773Z,16.10
2019-02-15T09:45:57.149Z,16.20
2019-02-15T09:48:26.834Z,17.70
2019-02-15T09:50:56.025Z,17.13
2019-02-15T09:53:25.337Z,19.50
2019-02-15T09:55:54.717Z,16.17
2019-02-15T09:58:23.977Z,13.90
2019-02-15T10:00:53.592Z,15.97
2019-02-15T10:03:23.512Z,19.70
2019-02-15T10:05:53.447Z,19.60
2019-02-15T10:08:23.660Z,17.97
2019-02-15T10:10:53.475Z,20.63
2019-02-15T10:13:22.748Z,19.73
2019-02-15T10:15:52.009Z,19.80
2019-02-15T10:18:21.314Z,21.37
2019-02-15T10:20:50.548Z,19.60
2019-02-15T10:23:19.737Z,17.43
2019-02-15T10:25:49.281Z,18.37
2019-02-15T10:28:18.449Z,22.73
2019-02-15T10:30:47.681Z,20.10
2019-02-15T10:33:17.241Z,24.37
2019-02-15T10:35:46.678Z,18.70
2019-02-15T10:38:16.140Z,19.53
2019-02-15T10:40:45.513Z,19.27
2019-02-15T10:43:14.709Z,19.73
2019-02-15T10:45:44.250Z,21.70
2019-02-15T10:48:13.626Z,19.90
2019-02-15T10:50:43.179Z,20.73
2019-02-15T10:53:12.662Z,21.33
2019-02-15T10:55:42.377Z,21.33
2019-02-15T10:58:11.637Z,26.07
2019-02-15T11:00:41.068Z,21.90
2019-02-15T11:03:10.332Z,29.63
2019-02-15T11:05:39.717Z,24.50
2019-02-15T11:08:09.669Z,26.63
2019-02-15T11:10:39.329Z,29.20
2019-02-15T11:13:09.114Z,29.47
2019-02-15T11:15:38.823Z,27.53
2019-02-15T11:18:09.177Z,25.23
2019-02-15T11:20:38.537Z,21.27
2019-02-15T11:23:07.997Z,26.07
2019-02-15T11:25:37.648Z,19.77
2019-02-15T11:28:07.397Z,15.87
2019-02-15T11:30:36.701Z,20.73
2019-02-15T11:33:05.951Z,17.13
2019-02-15T11:35:35.788Z,17.13
2019-02-15T11:38:05.053Z,19.27
2019-02-15T11:40:34.480Z,27.87
2019-02-15T11:43:04.449Z,20.50
2019-02-15T11:45:33.809Z,15.97
2019-02-15T11:48:03.121Z,16.13
2019-02-15T11:50:32.701Z,18.73
2019-02-15T11:53:02.018Z,16.20
2019-02-15T11:55:31.387Z,17.40
2019-02-15T11:58:00.830Z,16.20
2019-02-15T12:00:32.736Z,20.03
2019-02-15T12:03:01.969Z,23.30
2019-02-15T12:05:31.260Z,19.40
2019-02-15T12:08:00.546Z,18.80
2019-02-15T12:10:29.997Z,19.77
2019-02-15T12:12:59.261Z,18.87
2019-02-15T12:15:28.552Z,19.27
2019-02-15T12:17:57.732Z,16.03
2019-02-15T12:20:26.983Z,16.60
2019-02-15T12:22:56.565Z,22.77
2019-02-15T12:25:25.763Z,21.33
2019-02-15T12:27:55.110Z,18.53
2019-02-15T12:30:24.706Z,20.77
2019-02-15T12:32:54.032Z,19.13
2019-02-15T12:35:23.267Z,25.70
2019-02-15T12:37:52.797Z,27.17
2019-02-15T12:40:22.042Z,23.70
2019-02-15T12:42:51.805Z,32.97
2019-02-15T12:45:21.545Z,20.03
2019-02-15T12:47:50.998Z,14.87
2019-02-15T12:50:20.775Z,18.30
2019-02-15T12:52:50.199Z,15.17
2019-02-15T12:55:19.476Z,16.67
2019-02-15T12:57:48.646Z,26.97
2019-02-15T13:00:17.955Z,22.80
2019-02-15T13:02:48.060Z,20.63
2019-02-15T13:05:17.634Z,15.03
2019-02-15T13:07:47.071Z,17.97
2019-02-15T13:10:18.622Z,15.80
2019-02-15T13:12:50.098Z,20.13
2019-02-15T13:15:19.667Z,29.40
2019-02-15T13:17:48.879Z,27.95
2019-02-15T13:20:18.163Z,34.23
2019-02-15T13:22:47.555Z,21.35
2019-02-15T13:25:17.198Z,32.40
2019-02-15T13:27:46.842Z,18.48
2019-02-15T13:30:16.463Z,21.35
2019-02-15T13:32:46.442Z,27.07
2019-02-15T13:35:16.021Z,20.48
2019-02-15T13:37:45.258Z,19.27
2019-02-15T13:40:14.613Z,11.63
2019-02-15T13:42:43.921Z,18.85
2019-02-15T13:45:13.167Z,14.13
2019-02-15T13:47:42.796Z,17.73
2019-02-15T13:50:12.445Z,55.90
2019-02-15T13:52:41.761Z,34.45
2019-02-15T13:55:11.296Z,18.17
2019-02-15T13:57:40.634Z,12.18
2019-02-15T14:00:11.359Z,28.20
2019-02-15T14:02:40.979Z,12.35
2019-02-15T14:05:10.989Z,9.70
2019-02-15T14:07:40.378Z,16.15
2019-02-15T14:10:10.683Z,60.88
2019-02-15T14:12:40.129Z,49.45
2019-02-15T14:15:09.696Z,16.15
2019-02-15T14:17:44.806Z,18.20
2019-02-15T14:20:10.750Z,22.95
2019-02-15T14:22:40.370Z,18.32
2019-02-15T14:25:10.549Z,18.90
2019-02-15T14:27:39.795Z,23.52
2019-02-15T14:30:10.406Z,16.65
2019-02-15T14:32:40.213Z,10.08
2019-02-15T14:35:10.096Z,13.10
2019-02-15T14:37:39.402Z,9.65
2019-02-15T14:40:09.472Z,13.35
2019-02-15T14:42:39.084Z,17.42
2019-02-15T14:45:09.094Z,9.63
2019-02-15T14:47:38.706Z,9.35
2019-02-15T14:50:08.897Z,18.62
2019-02-15T14:52:38.191Z,9.93
2019-02-15T14:55:07.708Z,12.95
2019-02-15T14:57:37.061Z,19.67
2019-02-15T15:00:08.252Z,22.90
2019-02-15T15:02:37.689Z,22.90
2019-02-15T15:05:07.422Z,30.17
2019-02-15T15:07:36.810Z,37.63
2019-02-15T15:10:06.974Z,30.17
2019-02-15T15:12:36.369Z,12.85
2019-02-15T15:15:08.091Z,10.25
2019-02-15T15:17:37.418Z,12.23
2019-02-15T15:20:08.079Z,9.00
2019-02-15T15:22:37.615Z,16.35
2019-02-15T15:25:07.707Z,16.60
2019-02-15T15:27:37.231Z,19.82
2019-02-15T15:30:07.507Z,21.87
2019-02-15T15:32:37.122Z,19.40
2019-02-15T15:35:06.571Z,23.00
2019-02-15T15:37:36.011Z,22.93
2019-02-15T15:40:06.055Z,17.65
2019-02-15T15:42:35.412Z,13.72
2019-02-15T15:45:04.813Z,15.13
2019-02-15T15:47:34.515Z,10.53
2019-02-15T15:50:04.131Z,13.20
2019-02-15T15:52:33.636Z,12.05
2019-02-15T15:55:03.457Z,16.20
2019-02-15T15:57:32.710Z,14.23
2019-02-15T16:00:02.034Z,14.65
2019-02-15T16:02:31.530Z,15.80
2019-02-15T16:05:00.756Z,17.07
2019-02-15T16:07:30.141Z,14.05
2019-02-15T16:09:59.789Z,16.15
2019-02-15T16:12:29.141Z,15.83
2019-02-15T16:14:58.815Z,15.20
2019-02-15T16:17:29.861Z,19.50
2019-02-15T16:19:59.245Z,16.10
2019-02-15T16:22:28.543Z,17.57
2019-02-15T16:24:58.042Z,22.42
2019-02-15T16:27:27.681Z,22.13
2019-02-15T16:29:57.166Z,18.27
2019-02-15T16:32:26.566Z,17.12
2019-02-15T16:34:56.234Z,26.23
2019-02-15T16:37:25.666Z,27.10
2019-02-15T16:39:55.101Z,25.33
2019-02-15T16:42:24.653Z,21.13
2019-02-15T16:44:53.978Z,30.10
2019-02-15T16:47:23.445Z,30.03
2019-02-15T16:49:52.737Z,48.13
2019-02-15T16:52:22.088Z,44.43
2019-02-15T16:54:51.549Z,48.73
2019-02-15T16:57:21.173Z,73.47
2019-02-15T16:59:51.599Z,64.77
2019-02-15T17:02:21.046Z,39.33
2019-02-15T17:04:50.942Z,31.97
2019-02-15T17:07:20.537Z,21.60
2019-02-15T17:09:49.973Z,22.03
2019-02-15T17:12:19.551Z,27.80
2019-02-15T17:14:48.918Z,25.90
2019-02-15T17:17:18.751Z,25.20
2019-02-15T17:19:48.598Z,57.07
2019-02-15T17:22:18.041Z,127.63
2019-02-15T17:24:47.522Z,87.87
2019-02-15T17:27:17.497Z,25.13
2019-02-15T17:29:46.884Z,62.07
2019-02-15T17:32:16.192Z,37.93
2019-02-15T17:34:45.559Z,51.10
2019-02-15T17:37:15.123Z,41.30
2019-02-15T17:39:44.711Z,23.43
2019-02-15T17:42:14.030Z,19.20
2019-02-15T17:44:43.300Z,21.90
2019-02-15T17:47:12.701Z,37.80
2019-02-15T17:49:42.097Z,41.17
2019-02-15T17:52:11.458Z,42.57
2019-02-15T17:54:42.175Z,51.50
2019-02-15T17:57:11.573Z,53.43
2019-02-15T17:59:41.324Z,40.13
2019-02-15T18:02:10.732Z,37.23
2019-02-15T18:04:40.195Z,61.40
2019-02-15T18:07:09.927Z,121.23
2019-02-15T18:09:39.299Z,152.93
2019-02-15T18:12:09.014Z,140.50
2019-02-15T18:14:38.388Z,136.40
2019-02-15T18:17:08.002Z,70.77
2019-02-15T18:19:37.598Z,102.73
2019-02-15T18:22:07.602Z,173.03
2019-02-15T18:24:37.101Z,77.83
2019-02-15T18:27:06.463Z,35.80
2019-02-15T18:29:35.858Z,38.07
2019-02-15T18:32:05.755Z,27.63
2019-02-15T18:34:35.343Z,21.53
2019-02-15T18:37:04.776Z,20.23
2019-02-15T18:39:34.302Z,33.80
2019-02-15T18:42:03.705Z,20.40
2019-02-15T18:44:33.383Z,38.60
2019-02-15T18:47:02.862Z,25.33
2019-02-15T18:49:32.274Z,28.97
2019-02-15T18:52:01.741Z,22.90
2019-02-15T18:54:31.190Z,20.27
2019-02-15T18:57:00.645Z,21.97
2019-02-15T18:59:30.061Z,24.43
2019-02-15T19:01:59.814Z,32.73
2019-02-15T19:04:29.185Z,50.50
2019-02-15T19:06:58.814Z,34.07
2019-02-15T19:09:28.098Z,31.00
2019-02-15T19:11:57.498Z,87.87
2019-02-15T19:14:26.926Z,71.90
2019-02-15T19:16:56.248Z,65.63
2019-02-15T19:19:29.121Z,55.60
2019-02-15T19:21:57.067Z,33.60
2019-02-15T19:24:26.591Z,28.10
2019-02-15T19:26:55.950Z,28.63
2019-02-15T19:29:25.483Z,34.00
2019-02-15T19:31:55.353Z,31.17
2019-02-15T19:34:24.954Z,30.20
2019-02-15T19:36:54.628Z,34.63
2019-02-15T19:39:24.208Z,45.63
2019-02-15T19:41:53.620Z,38.40
2019-02-15T19:44:23.101Z,29.73
2019-02-15T19:46:52.750Z,31.83
2019-02-15T19:49:22.438Z,26.70
2019-02-15T19:51:51.854Z,26.83
2019-02-15T19:54:21.707Z,25.63
2019-02-15T19:56:51.090Z,24.00
2019-02-15T19:59:20.473Z,25.30
2019-02-15T20:01:50.005Z,23.67
2019-02-15T20:04:19.493Z,22.70
2019-02-15T20:06:49.088Z,25.33
2019-02-15T20:09:19.099Z,26.40
2019-02-15T20:11:48.515Z,26.40
2019-02-15T20:14:18.039Z,30.50
2019-02-15T20:16:47.513Z,22.70
2019-02-15T20:19:16.878Z,23.77
2019-02-15T20:21:46.365Z,22.80
2019-02-15T20:24:16.267Z,23.63
2019-02-15T20:26:45.629Z,22.27
2019-02-15T20:29:15.281Z,28.60
2019-02-15T20:31:45.040Z,24.70
2019-02-15T20:34:15.026Z,22.83
2019-02-15T20:36:44.759Z,24.37
2019-02-15T20:39:14.772Z,22.30
2019-02-15T20:41:44.176Z,27.33
2019-02-15T20:44:13.960Z,26.23
2019-02-15T20:46:43.723Z,22.70
2019-02-15T20:49:13.070Z,24.00
2019-02-15T20:51:42.585Z,18.93
2019-02-15T20:54:12.371Z,20.57
2019-02-15T20:56:42.155Z,22.13
2019-02-15T20:59:11.681Z,22.87
2019-02-15T21:01:41.434Z,18.73
2019-02-15T21:04:11.143Z,20.30
2019-02-15T21:06:41.019Z,16.63
2019-02-15T21:09:10.412Z,18.53
2019-02-15T21:11:39.739Z,20.10
2019-02-15T21:14:09.060Z,17.53
2019-02-15T21:16:38.430Z,17.03
2019-02-15T21:19:07.997Z,21.03
2019-02-15T21:21:37.546Z,22.53
2019-02-15T21:24:07.669Z,24.60
2019-02-15T21:26:37.201Z,26.17
2019-02-15T21:29:06.820Z,28.57
2019-02-15T21:31:36.165Z,27.87
2019-02-15T21:34:05.780Z,26.10
2019-02-15T21:36:35.213Z,27.37
2019-02-15T21:39:05.368Z,26.40
2019-02-15T21:41:34.753Z,23.70
2019-02-15T21:44:04.133Z,24.63
2019-02-15T21:46:33.577Z,21.97
2019-02-15T21:49:02.992Z,21.87
2019-02-15T21:51:32.295Z,26.33
2019-02-15T21:54:01.604Z,26.17
2019-02-15T21:56:30.836Z,25.10
2019-02-15T21:59:00.083Z,22.07
2019-02-15T22:01:29.389Z,22.27
2019-02-15T22:03:58.645Z,28.63
2019-02-15T22:06:27.997Z,25.70
2019-02-15T22:08:57.289Z,23.93
2019-02-15T22:11:26.910Z,25.10
2019-02-15T22:13:57.019Z,28.70
2019-02-15T22:16:26.301Z,22.43
2019-02-15T22:18:57.599Z,23.57
2019-02-15T22:21:26.997Z,35.83
2019-02-15T22:23:57.692Z,33.70
2019-02-15T22:26:27.299Z,34.60
2019-02-15T22:28:57.405Z,29.63
2019-02-15T22:31:26.806Z,25.80
2019-02-15T22:33:56.313Z,21.63
2019-02-15T22:36:25.682Z,21.30
2019-02-15T22:38:54.956Z,19.63
2019-02-15T22:41:24.325Z,15.77
2019-02-15T22:43:53.606Z,21.80
2019-02-15T22:46:23.016Z,18.40
2019-02-15T22:48:52.588Z,19.07
2019-02-15T22:51:22.250Z,16.93
2019-02-15T22:53:51.489Z,16.33
2019-02-15T22:56:21.085Z,19.00
2019-02-15T22:58:51.176Z,17.10
2019-02-15T23:01:21.592Z,23.03
2019-02-15T23:03:51.177Z,19.23
2019-02-15T23:06:20.813Z,18.67
2019-02-15T23:08:50.020Z,16.70
2019-02-15T23:11:19.348Z,16.37
2019-02-15T23:13:48.849Z,19.70
2019-02-15T23:16:18.638Z,19.37
2019-02-15T23:18:48.020Z,15.83
2019-02-15T23:21:17.354Z,13.33
2019-02-15T23:23:46.720Z,18.23
2019-02-15T23:26:16.018Z,14.60
2019-02-15T23:28:45.363Z,14.37
2019-02-15T23:31:14.655Z,16.77
2019-02-15T23:33:44.040Z,14.93
2019-02-15T23:36:13.364Z,15.53
2019-02-15T23:38:42.663Z,16.80
2019-02-15T23:41:11.832Z,13.47
2019-02-15T23:43:41.085Z,15.40
2019-02-15T23:46:10.350Z,16.27
2019-02-15T23:48:39.633Z,16.30
2019-02-15T23:51:09.169Z,15.70
2019-02-15T23:53:38.730Z,13.27
2019-02-15T23:56:08.310Z,13.77
2019-02-15T23:58:37.525Z,15.47
